首页
METAR-TAF:

METAR-TAF

机场 :

托尔马切沃机场

新西伯利亚, 俄罗斯

纬度: 55-01N, 经度: 082-38E, 海拔: 111米

当前天气观测

该预报发布于41分钟前的21:30 UTC
风速12节,风向
温度 -9°C
湿度 73%
气压 1021 hPa
能见度10公里或以上
1500米以下无云,无积雨云

METAR: UNNT 152130Z 17006MPS CAVOK M09/M13 Q1021 R07/810160 R16/810160 NOSIG RMK QFE755/1007

时间: 05:11 (22:11 UTC)

预报

该预报发布于2小时和11分钟前的20:00 UTC
预报有效从15日的 21点(UTC)到 16日的 21点(UTC)
风速10节,风向,有时为23节阵风
能见度10公里或以上
1500米以下无云,无积雨云
短暂存在
从 15日的 21点(UTC)到 16日的 03点(UTC)
风速6节,风向东转东南,有时为16节阵风
能見度: 3100
多云层高于1100英尺
从 16日的 0300点(UTC)
风速12节,风向南转西南,有时为25节阵风
能见度10公里或以上
多云层高于1100英尺, 积雨云.
低吹雪
短暂存在
从 16日的 03点(UTC)到 16日的 21点(UTC)
风速6节,风向,有时为16节阵风
能見度: 3100
多云层高于1600英尺, 积雨云.
小阵雪

TAF: UNNT 152000Z 1521/1621 17005G12MPS CAVOK TEMPO 1521/1603 12003G08MPS 3100 FU BKN011 FM160300 21006G13MPS 9999 DRSN BKN011CB TEMPO 1603/1621 17003G08MPS 3100 -SHSN BKN016CB

超过4000个机场的气象观测和天气预报(METAR&TAF报告)。

可查询的气象台以黄色和红色小点在地图上表示。

将鼠标移到小点上方,可查看气象台名称。

然后点击查看天气观测和预报。

如需切换地图:点击带黑十字的绿色按钮放大地图;点击带横线的绿色按钮缩小地图;或者点击绿色箭头查看邻近地区的地图。


METAR-TAF: